createdAt,value
2019-03-18T00:01:49.149Z,22.93
2019-03-18T00:04:52.682Z,22.92
2019-03-18T00:07:56.172Z,22.93
2019-03-18T00:11:00.693Z,22.91
2019-03-18T00:14:05.219Z,22.91
2019-03-18T00:17:09.752Z,22.90
2019-03-18T00:20:15.322Z,22.90
2019-03-18T00:23:18.792Z,22.90
2019-03-18T00:26:23.321Z,22.88
2019-03-18T00:29:27.849Z,22.88
2019-03-18T00:32:31.356Z,22.88
2019-03-18T00:35:34.865Z,22.86
2019-03-18T00:38:39.364Z,22.86
2019-03-18T00:41:43.900Z,22.86
2019-03-18T00:44:47.393Z,22.86
2019-03-18T00:47:50.948Z,22.84
2019-03-18T00:50:54.385Z,22.83
2019-03-18T00:53:57.900Z,22.83
2019-03-18T00:57:01.404Z,22.83
2019-03-18T01:00:05.676Z,22.81
2019-03-18T01:03:09.297Z,22.82
2019-03-18T01:06:12.767Z,22.80
2019-03-18T01:09:17.252Z,22.79
2019-03-18T01:12:22.788Z,22.79
2019-03-18T01:15:28.858Z,22.78
2019-03-18T01:18:32.452Z,22.78
2019-03-18T01:21:37.081Z,22.78
2019-03-18T01:24:40.586Z,22.77
2019-03-18T01:27:44.187Z,22.77
2019-03-18T01:30:47.688Z,22.77
2019-03-18T01:33:51.208Z,22.77
2019-03-18T01:36:54.699Z,22.75
2019-03-18T01:39:58.181Z,22.74
2019-03-18T01:43:01.794Z,22.75
2019-03-18T01:46:05.223Z,22.75
2019-03-18T01:49:08.677Z,22.74
2019-03-18T01:52:12.222Z,22.73
2019-03-18T01:55:15.717Z,22.72
2019-03-18T01:58:19.198Z,22.71
2019-03-18T02:01:22.730Z,22.71
2019-03-18T02:04:26.197Z,22.71
2019-03-18T02:07:29.720Z,22.71
2019-03-18T02:10:34.285Z,22.70
2019-03-18T02:13:37.754Z,22.69
2019-03-18T02:16:41.226Z,22.69
2019-03-18T02:19:44.720Z,22.67
2019-03-18T02:22:48.161Z,22.68
2019-03-18T02:25:51.639Z,22.66
2019-03-18T02:28:55.247Z,22.68
2019-03-18T02:31:59.809Z,22.66
2019-03-18T02:35:03.249Z,22.66
2019-03-18T02:38:06.808Z,22.66
2019-03-18T02:41:10.420Z,22.64
2019-03-18T02:44:14.064Z,22.64
2019-03-18T02:47:17.600Z,22.63
2019-03-18T02:50:22.223Z,22.65
2019-03-18T02:53:26.734Z,22.63
2019-03-18T02:56:30.238Z,22.62
2019-03-18T02:59:33.742Z,22.62
2019-03-18T03:02:37.236Z,22.60
2019-03-18T03:05:40.801Z,22.59
2019-03-18T03:08:44.235Z,22.59
2019-03-18T03:11:47.680Z,22.59
2019-03-18T03:14:51.227Z,22.58
2019-03-18T03:17:54.749Z,22.57
2019-03-18T03:20:58.235Z,22.58
2019-03-18T03:24:01.743Z,22.57
2019-03-18T03:27:05.297Z,22.56
2019-03-18T03:30:09.083Z,22.56
2019-03-18T03:33:12.559Z,22.56
2019-03-18T03:36:16.070Z,22.56
2019-03-18T03:39:19.672Z,22.56
2019-03-18T03:42:23.163Z,22.56
2019-03-18T03:45:26.700Z,22.56
2019-03-18T03:48:31.266Z,22.53
2019-03-18T03:51:34.911Z,22.52
2019-03-18T03:54:38.393Z,22.51
2019-03-18T03:57:41.903Z,22.52
2019-03-18T04:00:46.395Z,22.52
2019-03-18T04:03:49.845Z,22.51
2019-03-18T04:06:53.425Z,22.50
2019-03-18T04:09:56.914Z,22.50
2019-03-18T04:13:00.440Z,22.49
2019-03-18T04:16:04.933Z,22.47
2019-03-18T04:19:08.435Z,22.48
2019-03-18T04:22:15.137Z,22.47
2019-03-18T04:25:18.556Z,22.47
2019-03-18T04:28:22.052Z,22.47
2019-03-18T04:31:28.603Z,22.46
2019-03-18T04:34:32.165Z,22.45
2019-03-18T04:37:35.893Z,22.45
2019-03-18T04:40:39.492Z,22.44
2019-03-18T04:43:42.936Z,22.44
2019-03-18T04:46:46.451Z,22.43
2019-03-18T04:49:49.967Z,22.42
2019-03-18T04:52:53.496Z,22.43
2019-03-18T04:55:56.990Z,22.43
2019-03-18T04:59:05.779Z,22.42
2019-03-18T05:02:09.326Z,22.41
2019-03-18T05:05:12.843Z,22.44
2019-03-18T05:08:16.339Z,22.42
2019-03-18T05:11:19.830Z,22.41
2019-03-18T05:14:23.306Z,22.42
2019-03-18T05:17:27.178Z,22.40
2019-03-18T05:20:30.732Z,22.41
2019-03-18T05:23:35.301Z,22.40
2019-03-18T05:26:38.795Z,22.40
2019-03-18T05:29:42.233Z,22.39
2019-03-18T05:32:45.781Z,22.39
2019-03-18T05:35:49.270Z,22.39
2019-03-18T05:38:52.790Z,22.39
2019-03-18T05:41:56.283Z,22.39
2019-03-18T05:44:59.799Z,22.37
2019-03-18T05:48:04.363Z,22.37
2019-03-18T05:51:07.804Z,22.36
2019-03-18T05:54:11.297Z,22.35
2019-03-18T05:57:14.795Z,22.35
2019-03-18T06:00:18.304Z,22.35
2019-03-18T06:03:21.817Z,22.35
2019-03-18T06:06:25.335Z,22.36
2019-03-18T06:09:29.875Z,22.34
2019-03-18T06:12:34.536Z,22.35
2019-03-18T06:15:39.066Z,22.34
2019-03-18T06:18:43.626Z,22.33
2019-03-18T06:21:47.069Z,22.34
2019-03-18T06:24:50.599Z,22.31
2019-03-18T06:27:56.347Z,22.32
2019-03-18T06:30:59.858Z,22.31
2019-03-18T06:34:04.385Z,22.31
2019-03-18T06:37:07.902Z,22.29
2019-03-18T06:40:11.434Z,22.30
2019-03-18T06:43:15.039Z,22.30
2019-03-18T06:46:18.525Z,22.29
2019-03-18T06:49:22.121Z,22.31
2019-03-18T06:52:25.589Z,22.30
2019-03-18T06:55:29.123Z,22.29
2019-03-18T06:58:32.602Z,22.27
2019-03-18T07:01:36.061Z,22.27
2019-03-18T07:04:39.622Z,22.29
2019-03-18T07:07:43.109Z,22.30
2019-03-18T07:10:46.582Z,22.31
2019-03-18T07:13:52.177Z,22.31
2019-03-18T07:16:55.653Z,22.27
2019-03-18T07:19:59.226Z,22.26
2019-03-18T07:23:02.644Z,22.27
2019-03-18T07:26:06.143Z,22.27
2019-03-18T07:29:10.678Z,22.25
2019-03-18T07:32:15.208Z,22.24
2019-03-18T07:35:18.702Z,22.24
2019-03-18T07:38:22.222Z,22.26
2019-03-18T07:41:25.666Z,22.25
2019-03-18T07:44:30.233Z,22.24
2019-03-18T07:47:33.838Z,22.22
2019-03-18T07:50:37.443Z,22.20
2019-03-18T07:53:41.038Z,22.21
2019-03-18T07:56:44.674Z,22.20
2019-03-18T07:59:49.215Z,22.20
2019-03-18T08:02:54.803Z,22.21
2019-03-18T08:05:58.276Z,22.23
2019-03-18T08:09:04.081Z,22.24
2019-03-18T08:12:08.707Z,22.29
2019-03-18T08:15:14.275Z,22.27
2019-03-18T08:18:17.759Z,22.30
2019-03-18T08:21:22.269Z,22.29
2019-03-18T08:24:25.789Z,22.30
2019-03-18T08:27:29.368Z,22.31
2019-03-18T08:30:32.893Z,22.34
2019-03-18T08:33:36.353Z,22.33
2019-03-18T08:36:39.794Z,22.39
2019-03-18T08:39:43.317Z,22.38
2019-03-18T08:42:46.769Z,22.36
2019-03-18T08:45:50.198Z,22.39
2019-03-18T08:48:56.057Z,22.42
2019-03-18T08:51:58.904Z,22.43
2019-03-18T08:55:02.406Z,22.45
2019-03-18T08:58:05.900Z,22.47
2019-03-18T09:01:11.461Z,22.47
2019-03-18T09:04:15.015Z,22.46
2019-03-18T09:07:18.672Z,22.48
2019-03-18T09:10:24.237Z,22.42
2019-03-18T09:13:27.710Z,22.38
2019-03-18T09:16:32.359Z,22.39
2019-03-18T09:19:35.824Z,22.41
2019-03-18T09:22:42.228Z,22.43
2019-03-18T09:25:49.640Z,22.44
2019-03-18T09:29:01.989Z,22.46
2019-03-18T09:32:05.511Z,22.47
2019-03-18T09:35:09.021Z,22.48
2019-03-18T09:38:12.457Z,22.49
2019-03-18T09:41:16.023Z,22.50
2019-03-18T09:44:19.538Z,22.49
2019-03-18T09:47:23.052Z,22.50
2019-03-18T09:50:26.515Z,22.53
2019-03-18T09:53:30.028Z,22.54
2019-03-18T09:56:34.635Z,22.51
2019-03-18T09:59:38.249Z,22.54
2019-03-18T10:02:41.694Z,22.56
2019-03-18T10:05:45.261Z,22.55
2019-03-18T10:08:48.813Z,22.58
2019-03-18T10:11:53.415Z,22.56
2019-03-18T10:14:56.890Z,22.56
2019-03-18T10:18:01.324Z,22.57
2019-03-18T10:21:04.760Z,22.57
2019-03-18T10:24:08.216Z,22.57
2019-03-18T10:27:11.705Z,22.60
2019-03-18T10:30:15.227Z,22.59
2019-03-18T10:33:18.701Z,22.56
2019-03-18T10:36:22.137Z,22.62
2019-03-18T10:39:25.616Z,22.60
2019-03-18T10:42:29.107Z,22.59
2019-03-18T10:45:32.616Z,22.57
2019-03-18T10:48:36.176Z,22.59
2019-03-18T10:51:39.717Z,22.60
2019-03-18T10:54:43.368Z,22.59
2019-03-18T10:57:46.839Z,22.62
2019-03-18T11:00:50.269Z,22.60
2019-03-18T11:03:53.820Z,22.62
2019-03-18T11:06:57.264Z,22.60
2019-03-18T11:10:00.874Z,22.60
2019-03-18T11:13:04.339Z,22.59
2019-03-18T11:16:07.826Z,22.59
2019-03-18T11:19:11.323Z,22.61
2019-03-18T11:22:14.828Z,22.59
2019-03-18T11:25:18.332Z,22.58
2019-03-18T11:28:21.844Z,22.58
2019-03-18T11:31:25.337Z,22.58
2019-03-18T11:34:29.330Z,22.61
2019-03-18T11:37:32.949Z,22.59
2019-03-18T11:40:37.478Z,22.61
2019-03-18T11:43:40.987Z,22.64
2019-03-18T11:46:44.495Z,22.64
2019-03-18T11:49:48.014Z,22.64
2019-03-18T11:52:51.495Z,22.66
2019-03-18T11:55:54.982Z,22.68
2019-03-18T11:58:58.463Z,22.67
2019-03-18T12:02:02.011Z,22.67
2019-03-18T12:05:07.818Z,22.68
2019-03-18T12:08:11.251Z,22.70
2019-03-18T12:11:15.834Z,22.68
2019-03-18T12:14:19.545Z,22.69
2019-03-18T12:17:23.166Z,22.70
2019-03-18T12:20:26.704Z,22.70
2019-03-18T12:23:31.206Z,22.69
2019-03-18T12:26:34.714Z,22.71
2019-03-18T12:29:38.211Z,22.73
2019-03-18T12:32:41.723Z,22.71
2019-03-18T12:35:45.219Z,22.73
2019-03-18T12:38:48.698Z,22.73
2019-03-18T12:41:52.209Z,22.71
2019-03-18T12:44:55.691Z,22.74
2019-03-18T12:47:59.220Z,22.76
2019-03-18T12:51:02.719Z,22.74
2019-03-18T12:54:08.241Z,22.75
2019-03-18T12:57:11.754Z,22.76
2019-03-18T13:00:18.387Z,22.79
2019-03-18T13:03:22.036Z,22.83
2019-03-18T13:06:25.540Z,22.84
2019-03-18T13:09:29.038Z,22.88
2019-03-18T13:12:32.534Z,22.90
2019-03-18T13:15:36.062Z,22.93
2019-03-18T13:18:40.596Z,22.96
2019-03-18T13:21:44.058Z,22.98
2019-03-18T13:24:47.558Z,23.01
2019-03-18T13:27:51.088Z,23.04
2019-03-18T13:30:54.557Z,23.08
2019-03-18T13:33:58.086Z,23.08
2019-03-18T13:37:01.589Z,23.10
2019-03-18T13:40:06.422Z,23.08
2019-03-18T13:43:10.006Z,23.07
2019-03-18T13:46:13.536Z,23.07
2019-03-18T13:49:17.004Z,23.07
2019-03-18T13:52:20.505Z,23.05
2019-03-18T13:55:24.001Z,23.07
2019-03-18T13:58:27.510Z,23.06
2019-03-18T14:01:31.080Z,23.08
2019-03-18T14:04:34.729Z,23.11
2019-03-18T14:07:38.229Z,23.13
2019-03-18T14:10:41.725Z,23.16
2019-03-18T14:13:45.219Z,23.19
2019-03-18T14:16:48.764Z,23.23
2019-03-18T14:19:52.209Z,23.20
2019-03-18T14:22:56.736Z,23.24
2019-03-18T14:26:00.243Z,23.27
2019-03-18T14:29:03.743Z,23.25
2019-03-18T14:32:08.321Z,23.27
2019-03-18T14:35:11.780Z,23.28
2019-03-18T14:38:15.312Z,23.29
2019-03-18T14:41:18.765Z,23.29
2019-03-18T14:44:22.265Z,23.29
2019-03-18T14:47:25.783Z,23.33
2019-03-18T14:50:29.274Z,23.32
2019-03-18T14:53:32.782Z,23.32
2019-03-18T14:56:36.336Z,23.34
2019-03-18T14:59:39.771Z,23.38
2019-03-18T15:02:43.283Z,23.39
2019-03-18T15:05:46.787Z,23.44
2019-03-18T15:08:51.299Z,23.47
2019-03-18T15:11:54.849Z,23.50
2019-03-18T15:14:59.339Z,23.52
2019-03-18T15:18:02.853Z,23.57
2019-03-18T15:21:06.337Z,23.61
2019-03-18T15:24:16.925Z,23.66
2019-03-18T15:27:15.228Z,23.69
2019-03-18T15:30:19.014Z,23.75
2019-03-18T15:33:23.627Z,23.73
2019-03-18T15:36:27.112Z,23.84
2019-03-18T15:39:30.722Z,23.90
2019-03-18T15:42:35.348Z,23.96
2019-03-18T15:45:38.908Z,23.99
2019-03-18T15:48:42.369Z,23.94
2019-03-18T15:51:45.931Z,23.95
2019-03-18T15:54:54.064Z,24.00
2019-03-18T15:57:54.951Z,24.02
2019-03-18T16:00:58.399Z,24.03
2019-03-18T16:04:02.762Z,24.07
2019-03-18T16:07:06.237Z,24.07
2019-03-18T16:10:10.304Z,24.06
2019-03-18T16:13:13.880Z,24.05
2019-03-18T16:16:17.351Z,24.06
2019-03-18T16:19:20.852Z,24.05
2019-03-18T16:22:25.382Z,24.03
2019-03-18T16:25:28.899Z,24.01
2019-03-18T16:28:33.442Z,23.98
2019-03-18T16:31:37.931Z,23.96
2019-03-18T16:34:41.447Z,23.94
2019-03-18T16:37:45.036Z,23.93
2019-03-18T16:40:48.749Z,23.91
2019-03-18T16:43:52.340Z,23.90
2019-03-18T16:46:55.851Z,23.88
2019-03-18T16:50:00.458Z,23.86
2019-03-18T16:53:03.867Z,23.85
2019-03-18T16:56:07.373Z,23.84
2019-03-18T16:59:13.344Z,23.82
2019-03-18T17:02:16.965Z,23.80
2019-03-18T17:05:21.550Z,23.77
2019-03-18T17:08:25.061Z,23.78
2019-03-18T17:11:28.555Z,23.76
2019-03-18T17:14:35.646Z,23.70
2019-03-18T17:17:39.256Z,23.68
2019-03-18T17:20:42.750Z,23.68
2019-03-18T17:23:46.237Z,23.67
2019-03-18T17:26:49.752Z,23.66
2019-03-18T17:29:54.280Z,23.60
2019-03-18T17:32:57.782Z,23.58
2019-03-18T17:36:03.680Z,23.56
2019-03-18T17:39:08.372Z,23.55
2019-03-18T17:42:11.977Z,23.52
2019-03-18T17:45:15.492Z,23.51
2019-03-18T17:48:20.075Z,23.48
2019-03-18T17:51:23.685Z,23.47
2019-03-18T17:54:27.198Z,23.44
2019-03-18T17:57:30.784Z,23.41
2019-03-18T18:00:37.880Z,23.43
2019-03-18T18:03:41.401Z,23.40
2019-03-18T18:06:44.877Z,23.39
2019-03-18T18:09:48.510Z,23.38
2019-03-18T18:12:52.122Z,23.36
2019-03-18T18:15:55.596Z,23.34
2019-03-18T18:18:59.132Z,23.32
2019-03-18T18:22:02.683Z,23.33
2019-03-18T18:25:07.524Z,23.30
2019-03-18T18:28:11.032Z,23.29
2019-03-18T18:31:14.524Z,23.27
2019-03-18T18:34:18.039Z,23.26
2019-03-18T18:37:21.626Z,23.24
2019-03-18T18:40:25.347Z,23.23
2019-03-18T18:43:28.946Z,23.21
2019-03-18T18:46:32.433Z,23.20
2019-03-18T18:49:36.056Z,23.19
2019-03-18T18:52:39.716Z,23.16
2019-03-18T18:55:43.351Z,23.17
2019-03-18T18:58:46.888Z,23.16
2019-03-18T19:01:50.347Z,23.14
2019-03-18T19:04:53.932Z,23.14
2019-03-18T19:07:57.812Z,23.11
2019-03-18T19:11:01.514Z,23.10
2019-03-18T19:14:06.096Z,23.10
2019-03-18T19:17:09.706Z,23.09
2019-03-18T19:20:13.220Z,23.07
2019-03-18T19:23:16.698Z,23.07
2019-03-18T19:26:21.321Z,23.06
2019-03-18T19:29:24.936Z,23.05
2019-03-18T19:32:28.427Z,23.05
2019-03-18T19:35:31.964Z,23.04
2019-03-18T19:38:35.460Z,23.02
2019-03-18T19:41:40.203Z,22.99
2019-03-18T19:44:43.895Z,23.04
2019-03-18T19:47:47.477Z,23.04
2019-03-18T19:50:52.107Z,23.03
2019-03-18T19:53:56.647Z,23.04
2019-03-18T19:57:00.126Z,23.03
2019-03-18T20:00:04.209Z,23.04
2019-03-18T20:03:08.772Z,23.05
2019-03-18T20:06:12.384Z,23.02
2019-03-18T20:09:16.115Z,23.02
2019-03-18T20:12:19.812Z,23.04
2019-03-18T20:15:23.408Z,23.03
2019-03-18T20:18:27.913Z,23.06
2019-03-18T20:21:31.445Z,23.08
2019-03-18T20:24:34.944Z,23.08
2019-03-18T20:27:38.431Z,23.09
2019-03-18T20:30:41.933Z,23.11
2019-03-18T20:33:46.464Z,23.12
2019-03-18T20:36:50.971Z,23.12
2019-03-18T20:39:54.583Z,23.14
2019-03-18T20:42:58.278Z,23.14
2019-03-18T20:46:02.918Z,23.14
2019-03-18T20:49:06.470Z,23.16
2019-03-18T20:52:16.834Z,23.15
2019-03-18T20:55:17.309Z,23.16
2019-03-18T20:58:20.794Z,23.17
2019-03-18T21:01:24.323Z,23.17
2019-03-18T21:04:27.823Z,23.18
2019-03-18T21:07:31.307Z,23.18
2019-03-18T21:10:34.815Z,23.19
2019-03-18T21:13:38.274Z,23.20
2019-03-18T21:16:41.837Z,23.20
2019-03-18T21:19:47.386Z,23.19
2019-03-18T21:22:51.975Z,23.20
2019-03-18T21:25:55.634Z,23.17
2019-03-18T21:28:59.102Z,23.21
2019-03-18T21:32:02.589Z,23.18
2019-03-18T21:35:06.391Z,23.19
2019-03-18T21:38:09.992Z,23.18
2019-03-18T21:41:13.518Z,23.18
2019-03-18T21:44:17.100Z,23.16
2019-03-18T21:47:20.751Z,23.16
2019-03-18T21:50:24.215Z,23.14
2019-03-18T21:53:27.802Z,23.15
2019-03-18T21:56:32.440Z,23.15
2019-03-18T21:59:35.962Z,23.14
2019-03-18T22:02:40.467Z,23.13
2019-03-18T22:05:45.045Z,23.13
2019-03-18T22:08:48.642Z,23.11
2019-03-18T22:11:52.221Z,23.09
2019-03-18T22:14:55.712Z,23.09
2019-03-18T22:18:00.217Z,23.08
2019-03-18T22:21:03.774Z,23.08
2019-03-18T22:24:09.268Z,23.08
2019-03-18T22:27:14.809Z,23.07
2019-03-18T22:30:18.343Z,23.05
2019-03-18T22:33:21.817Z,23.04
2019-03-18T22:36:28.405Z,23.03
2019-03-18T22:39:31.898Z,23.01
2019-03-18T22:42:35.509Z,23.02
2019-03-18T22:45:39.115Z,22.99
2019-03-18T22:48:42.610Z,23.01
2019-03-18T22:51:46.166Z,22.99
2019-03-18T22:54:55.942Z,22.98
2019-03-18T22:57:55.157Z,22.98
2019-03-18T23:01:10.090Z,22.96
2019-03-18T23:04:14.639Z,22.94
2019-03-18T23:07:18.154Z,22.93
2019-03-18T23:10:21.649Z,22.93
2019-03-18T23:13:25.241Z,22.91
2019-03-18T23:16:28.862Z,22.91
2019-03-18T23:19:32.381Z,22.90
2019-03-18T23:22:35.894Z,22.88
2019-03-18T23:25:39.367Z,22.88
2019-03-18T23:28:42.846Z,22.88
2019-03-18T23:31:46.385Z,22.86
2019-03-18T23:34:49.864Z,22.86
2019-03-18T23:37:53.367Z,22.86
2019-03-18T23:40:57.880Z,22.85
2019-03-18T23:44:01.489Z,22.83
2019-03-18T23:47:05.107Z,22.82
2019-03-18T23:50:08.883Z,22.82
2019-03-18T23:53:12.509Z,22.81
2019-03-18T23:56:16.004Z,22.80
2019-03-18T23:59:19.502Z,22.80
